createdAt,value
2023-08-15T00:01:06.271Z,64.37
2023-08-15T00:04:08.416Z,64.67
2023-08-15T00:07:10.987Z,64.37
2023-08-15T00:10:12.844Z,64.73
2023-08-15T00:13:15.611Z,64.35
2023-08-15T00:16:17.585Z,63.75
2023-08-15T00:19:19.484Z,63.20
2023-08-15T00:22:21.490Z,64.66
2023-08-15T00:25:23.495Z,65.15
2023-08-15T00:28:25.429Z,65.96
2023-08-15T00:31:27.425Z,66.65
2023-08-15T00:34:29.495Z,66.16
2023-08-15T00:37:32.782Z,66.11
2023-08-15T00:40:34.782Z,65.52
2023-08-15T00:43:37.135Z,66.42
2023-08-15T00:46:39.383Z,65.94
2023-08-15T00:53:34.072Z,66.22
2023-08-15T00:56:38.023Z,66.81
2023-08-15T00:59:42.826Z,66.57
2023-08-15T01:02:44.996Z,66.76
2023-08-15T01:05:48.374Z,67.76
2023-08-15T01:08:50.786Z,67.87
2023-08-15T01:12:17.812Z,67.71
2023-08-15T01:15:28.313Z,68.17
2023-08-15T01:18:40.418Z,71.21
2023-08-15T01:21:48.968Z,73.70
2023-08-15T01:24:53.630Z,74.74
2023-08-15T01:27:55.848Z,75.39
2023-08-15T01:31:08.118Z,76.73
2023-08-15T01:34:13.616Z,77.51
2023-08-15T01:37:37.341Z,77.56
2023-08-15T01:40:42.842Z,77.47
2023-08-15T01:43:45.737Z,78.04
2023-08-15T01:46:48.159Z,78.56
2023-08-15T01:49:50.121Z,78.11
2023-08-15T01:52:52.016Z,78.41
2023-08-15T01:55:54.800Z,78.60
2023-08-15T01:58:56.795Z,78.51
2023-08-15T02:01:58.867Z,78.35
2023-08-15T02:05:03.453Z,78.41
2023-08-15T02:08:05.868Z,79.04
2023-08-15T02:11:07.805Z,78.76
2023-08-15T02:14:09.738Z,79.73
2023-08-15T02:17:11.668Z,80.44
2023-08-15T02:20:14.125Z,80.74
2023-08-15T02:23:16.103Z,81.01
2023-08-15T02:26:17.924Z,81.27
2023-08-15T02:29:20.563Z,82.42
2023-08-15T02:32:22.560Z,83.14
2023-08-15T02:35:24.524Z,82.91
2023-08-15T02:38:26.456Z,82.83
2023-08-15T02:42:27.013Z,100.00
2023-08-15T02:46:29.761Z,100.00
2023-08-15T02:50:30.351Z,100.00
2023-08-15T02:54:30.741Z,100.00
2023-08-15T02:58:31.200Z,100.00
2023-08-15T03:02:31.934Z,100.00
2023-08-15T03:06:32.469Z,100.00
2023-08-15T03:10:37.705Z,100.00
2023-08-15T03:14:38.091Z,100.00
2023-08-15T03:18:38.675Z,100.00
2023-08-15T03:22:39.176Z,100.00
2023-08-15T03:26:40.723Z,100.00
2023-08-15T03:30:41.159Z,100.00
2023-08-15T03:34:41.732Z,100.00
2023-08-15T03:38:42.663Z,100.00
2023-08-15T03:41:45.003Z,78.14
2023-08-15T03:44:46.832Z,77.77
2023-08-15T03:47:50.637Z,78.17
2023-08-15T03:50:55.862Z,78.25
2023-08-15T03:54:00.086Z,79.60
2023-08-15T03:57:02.447Z,79.84
2023-08-15T04:00:06.396Z,80.00
2023-08-15T04:03:16.637Z,78.98
2023-08-15T04:06:19.210Z,79.04
2023-08-15T04:09:22.523Z,79.05
2023-08-15T04:12:25.104Z,79.30
2023-08-15T04:15:26.953Z,78.64
2023-08-15T04:18:28.972Z,78.44
2023-08-15T04:21:32.171Z,77.45
2023-08-15T04:24:34.113Z,76.42
2023-08-15T04:27:39.413Z,74.75
2023-08-15T04:30:42.231Z,72.62
2023-08-15T04:33:44.086Z,70.68
2023-08-15T04:36:47.724Z,69.46
2023-08-15T04:39:50.099Z,70.53
2023-08-15T04:42:52.110Z,70.67
2023-08-15T04:45:54.083Z,69.99
2023-08-15T04:48:56.178Z,68.65
2023-08-15T04:51:58.119Z,70.74
2023-08-15T04:55:00.141Z,70.72
2023-08-15T04:58:50.267Z,70.24
2023-08-15T05:01:52.192Z,69.42
2023-08-15T05:04:54.073Z,72.04
2023-08-15T05:07:56.059Z,71.95
2023-08-15T05:10:58.084Z,70.93
2023-08-15T05:14:03.055Z,71.40
2023-08-15T05:17:05.084Z,70.58
2023-08-15T05:20:07.601Z,70.22
2023-08-15T05:23:09.550Z,70.47
2023-08-15T05:26:11.652Z,69.66
2023-08-15T05:29:13.639Z,71.31
2023-08-15T05:36:23.143Z,69.21
2023-08-15T05:39:25.051Z,69.23
2023-08-15T05:42:27.255Z,68.75
2023-08-15T05:45:30.578Z,70.17
2023-08-15T05:48:32.986Z,70.03
2023-08-15T05:51:34.859Z,70.60
2023-08-15T05:54:36.853Z,68.80
2023-08-15T05:57:38.776Z,68.45
2023-08-15T06:00:42.240Z,66.90
2023-08-15T06:03:52.751Z,66.16
2023-08-15T06:06:55.280Z,65.40
2023-08-15T06:09:57.318Z,64.60
2023-08-15T06:12:59.267Z,64.96
2023-08-15T06:16:01.267Z,64.87
2023-08-15T06:19:03.263Z,65.17
2023-08-15T06:22:07.723Z,65.31
2023-08-15T06:25:09.913Z,68.20
2023-08-15T06:28:11.928Z,67.92
2023-08-15T06:31:13.812Z,68.03
2023-08-15T06:34:15.709Z,67.60
2023-08-15T06:37:17.709Z,67.33
2023-08-15T06:40:19.534Z,67.68
2023-08-15T06:43:21.438Z,66.46
2023-08-15T06:46:23.792Z,66.11
2023-08-15T06:49:25.793Z,63.75
2023-08-15T06:52:28.316Z,60.89
2023-08-15T06:55:30.270Z,59.75
2023-08-15T06:58:32.152Z,60.63
2023-08-15T07:01:34.240Z,59.39
2023-08-15T07:04:41.372Z,58.83
2023-08-15T07:07:43.332Z,58.71
2023-08-15T07:10:45.693Z,57.90
2023-08-15T07:13:47.666Z,58.24
2023-08-15T07:16:50.901Z,57.88
2023-08-15T07:19:52.874Z,58.48
2023-08-15T07:22:56.391Z,58.50
2023-08-15T07:25:58.504Z,57.66
2023-08-15T07:29:00.553Z,57.84
2023-08-15T07:32:02.769Z,57.14
2023-08-15T07:35:08.900Z,56.82
2023-08-15T07:38:10.867Z,56.78
2023-08-15T07:41:51.393Z,57.03
2023-08-15T07:44:53.514Z,57.14
2023-08-15T07:47:57.447Z,57.48
2023-08-15T07:50:59.901Z,58.55
2023-08-15T07:54:01.769Z,57.38
2023-08-15T07:57:03.787Z,56.45
2023-08-15T08:00:08.086Z,56.73
2023-08-15T08:03:15.651Z,58.04
2023-08-15T08:09:22.500Z,55.75
2023-08-15T08:12:24.472Z,55.68
2023-08-15T08:15:27.810Z,55.62
2023-08-15T08:18:29.741Z,53.17
2023-08-15T08:21:31.649Z,51.94
2023-08-15T08:24:35.931Z,52.25
2023-08-15T08:27:37.827Z,52.89
2023-08-15T08:30:39.933Z,52.46
2023-08-15T08:33:41.910Z,50.75
2023-08-15T08:36:44.477Z,54.06
2023-08-15T08:39:46.385Z,52.78
2023-08-15T08:42:48.459Z,52.36
2023-08-15T08:45:55.723Z,52.13
2023-08-15T08:49:01.496Z,53.10
2023-08-15T08:52:05.133Z,53.35
2023-08-15T08:55:07.422Z,52.87
2023-08-15T08:58:12.693Z,53.51
2023-08-15T09:01:15.127Z,52.47
2023-08-15T09:04:21.875Z,52.97
2023-08-15T09:07:23.969Z,52.21
2023-08-15T09:10:26.218Z,52.24
2023-08-15T09:13:28.230Z,50.64
2023-08-15T09:16:31.357Z,49.28
2023-08-15T09:19:40.372Z,47.00
2023-08-15T09:22:46.402Z,48.01
2023-08-15T09:25:50.060Z,48.66
2023-08-15T09:28:52.259Z,48.01
2023-08-15T09:31:54.140Z,48.24
2023-08-15T09:34:56.101Z,48.77
2023-08-15T09:37:58.046Z,47.85
2023-08-15T09:41:01.255Z,48.14
2023-08-15T09:44:03.329Z,49.88
2023-08-15T09:47:07.731Z,48.28
2023-08-15T09:50:12.348Z,46.88
2023-08-15T09:53:15.655Z,47.15
2023-08-15T09:56:19.222Z,45.94
2023-08-15T09:59:21.783Z,44.93
2023-08-15T10:02:24.949Z,46.15
2023-08-15T10:05:32.539Z,45.16
2023-08-15T10:08:39.614Z,43.75
2023-08-15T10:11:45.978Z,43.00
2023-08-15T10:14:48.924Z,43.23
2023-08-15T10:17:52.108Z,42.32
2023-08-15T10:20:55.185Z,41.15
2023-08-15T10:24:04.131Z,39.63
2023-08-15T10:27:07.346Z,41.12
2023-08-15T10:30:10.279Z,40.04
2023-08-15T10:33:12.204Z,40.19
2023-08-15T10:36:14.145Z,41.83
2023-08-15T10:39:16.424Z,40.46
2023-08-15T10:42:18.394Z,40.96
2023-08-15T10:45:21.100Z,40.67
2023-08-15T10:51:59.320Z,44.41
2023-08-15T10:55:01.652Z,44.27
2023-08-15T10:58:06.150Z,44.74
2023-08-15T11:01:08.365Z,42.65
2023-08-15T11:04:15.750Z,44.04
2023-08-15T11:07:27.662Z,43.78
2023-08-15T11:10:29.662Z,45.17
2023-08-15T11:13:46.791Z,46.43
2023-08-15T11:16:50.152Z,43.55
2023-08-15T11:19:52.492Z,43.83
2023-08-15T11:22:58.584Z,42.67
2023-08-15T11:26:05.248Z,43.05
2023-08-15T11:29:07.229Z,42.72
2023-08-15T11:32:10.133Z,43.57
2023-08-15T11:35:13.063Z,44.03
2023-08-15T11:38:18.922Z,43.47
2023-08-15T11:41:21.045Z,44.16
2023-08-15T11:44:23.242Z,43.42
2023-08-15T11:47:25.325Z,43.04
2023-08-15T11:50:41.969Z,43.53
2023-08-15T11:53:51.208Z,44.46
2023-08-15T11:56:54.608Z,43.98
2023-08-15T11:59:56.673Z,43.09
2023-08-15T12:02:59.152Z,43.95
2023-08-15T12:06:12.730Z,43.05
2023-08-15T12:09:14.955Z,42.72
2023-08-15T12:12:21.253Z,43.23
2023-08-15T12:15:23.802Z,43.68
2023-08-15T12:18:25.719Z,42.96
2023-08-15T12:21:27.660Z,44.03
2023-08-15T12:24:29.642Z,43.28
2023-08-15T12:27:31.564Z,42.59
2023-08-15T12:30:34.042Z,43.88
2023-08-15T12:33:46.713Z,42.43
2023-08-15T12:36:49.501Z,44.09
2023-08-15T12:39:51.449Z,44.99
2023-08-15T12:42:53.640Z,44.49
2023-08-15T12:45:56.022Z,45.80
2023-08-15T13:09:22.588Z,41.39
2023-08-15T13:12:24.807Z,41.22
2023-08-15T13:15:27.069Z,42.01
2023-08-15T13:18:29.025Z,42.75
2023-08-15T13:22:05.454Z,41.08
2023-08-15T13:25:07.983Z,42.05
2023-08-15T13:28:09.835Z,41.20
2023-08-15T13:31:11.860Z,39.77
2023-08-15T13:34:13.703Z,40.74
2023-08-15T13:37:15.568Z,39.51
2023-08-15T13:40:17.564Z,39.76
2023-08-15T13:43:19.556Z,39.55
2023-08-15T13:46:21.459Z,40.06
2023-08-15T13:49:23.510Z,38.87
2023-08-15T13:52:25.360Z,38.93
2023-08-15T13:55:27.483Z,39.26
2023-08-15T13:58:30.131Z,38.18
2023-08-15T14:01:33.543Z,38.16
2023-08-15T14:04:35.538Z,37.84
2023-08-15T14:07:37.507Z,37.98
2023-08-15T14:10:39.937Z,39.15
2023-08-15T14:13:43.439Z,40.04
2023-08-15T14:16:45.405Z,40.52
2023-08-15T14:19:47.499Z,38.85
2023-08-15T14:22:49.413Z,39.87
2023-08-15T14:25:51.690Z,40.96
2023-08-15T14:28:55.694Z,41.16
2023-08-15T14:31:57.555Z,41.36
2023-08-15T14:34:59.701Z,41.04
2023-08-15T14:38:03.930Z,41.17
2023-08-15T14:41:06.606Z,40.02
2023-08-15T14:44:08.518Z,38.90
2023-08-15T14:47:10.403Z,39.21
2023-08-15T14:50:12.507Z,39.86
2023-08-15T14:53:14.494Z,39.72
2023-08-15T14:56:18.427Z,40.22
2023-08-15T14:59:20.660Z,39.11
2023-08-15T15:02:24.941Z,37.41
2023-08-15T15:05:27.288Z,38.02
2023-08-15T15:08:29.178Z,39.29
2023-08-15T15:11:31.134Z,38.04
2023-08-15T15:14:33.815Z,37.78
2023-08-15T15:17:36.071Z,38.91
2023-08-15T15:20:38.055Z,39.27
2023-08-15T15:23:40.026Z,39.72
2023-08-15T15:26:41.934Z,40.19
2023-08-15T15:29:44.233Z,41.22
2023-08-15T15:32:46.203Z,42.12
2023-08-15T15:35:48.388Z,41.50
2023-08-15T15:38:52.889Z,41.79
2023-08-15T15:41:56.458Z,42.25
2023-08-15T15:44:58.447Z,42.59
2023-08-15T15:48:00.500Z,41.33
2023-08-15T15:51:12.456Z,41.98
2023-08-15T15:54:14.416Z,42.56
2023-08-15T15:57:17.581Z,42.91
2023-08-15T16:00:21.775Z,43.86
2023-08-15T16:03:23.998Z,43.59
2023-08-15T16:06:26.007Z,43.70
2023-08-15T16:09:28.028Z,44.40
2023-08-15T16:12:29.904Z,45.36
2023-08-15T16:15:32.055Z,44.49
2023-08-15T16:18:34.190Z,46.99
2023-08-15T16:21:36.912Z,45.28
2023-08-15T16:24:38.886Z,45.79
2023-08-15T16:27:40.763Z,46.33
2023-08-15T16:30:42.676Z,46.85
2023-08-15T16:33:44.754Z,47.57
2023-08-15T16:36:47.799Z,48.68
2023-08-15T16:39:49.980Z,49.01
2023-08-15T16:43:12.498Z,50.35
2023-08-15T16:46:14.711Z,50.39
2023-08-15T16:49:16.633Z,51.79
2023-08-15T16:52:18.616Z,52.20
2023-08-15T16:55:20.502Z,52.37
2023-08-15T16:58:22.401Z,52.78
2023-08-15T17:01:24.539Z,51.75
2023-08-15T17:04:26.413Z,52.67
2023-08-15T17:07:29.525Z,53.04
2023-08-15T17:10:31.743Z,55.16
2023-08-15T17:13:33.704Z,53.86
2023-08-15T17:16:35.779Z,55.45
2023-08-15T17:19:37.760Z,55.75
2023-08-15T17:22:39.662Z,54.51
2023-08-15T17:25:41.777Z,54.72
2023-08-15T17:32:53.033Z,55.36
2023-08-15T17:35:54.959Z,59.56
2023-08-15T17:38:56.861Z,59.42
2023-08-15T17:41:59.418Z,58.03
2023-08-15T17:45:01.470Z,58.20
2023-08-15T17:48:03.733Z,58.20
2023-08-15T17:51:05.882Z,58.02
2023-08-15T17:54:09.940Z,59.34
2023-08-15T17:57:11.798Z,52.94
2023-08-15T18:00:14.262Z,52.09
2023-08-15T18:03:16.395Z,51.61
2023-08-15T18:06:18.632Z,50.04
2023-08-15T18:09:23.769Z,53.16
2023-08-15T18:12:30.066Z,56.23
2023-08-15T18:15:32.021Z,58.77
2023-08-15T18:18:34.011Z,59.77
2023-08-15T18:21:35.959Z,59.68
2023-08-15T18:24:37.792Z,62.74
2023-08-15T18:27:39.633Z,62.00
2023-08-15T18:30:41.574Z,64.55
2023-08-15T18:33:43.483Z,65.74
2023-08-15T18:36:45.392Z,65.36
2023-08-15T18:39:47.253Z,66.12
2023-08-15T18:42:49.173Z,64.42
2023-08-15T18:45:51.407Z,64.39
2023-08-15T18:48:53.550Z,61.67
2023-08-15T18:51:55.560Z,61.68
2023-08-15T18:54:57.845Z,61.50
2023-08-15T18:57:59.837Z,62.87
2023-08-15T19:01:01.790Z,62.97
2023-08-15T19:04:04.366Z,63.38
2023-08-15T19:07:06.394Z,63.19
2023-08-15T19:10:08.817Z,62.36
2023-08-15T19:13:12.689Z,63.97
2023-08-15T19:16:14.702Z,63.09
2023-08-15T19:39:47.362Z,63.96
2023-08-15T19:42:49.404Z,64.71
2023-08-15T19:45:51.614Z,64.20
2023-08-15T19:48:53.640Z,64.62
2023-08-15T19:51:55.504Z,65.36
2023-08-15T19:54:57.695Z,64.72
2023-08-15T19:57:59.515Z,64.34
2023-08-15T20:01:01.487Z,63.89
2023-08-15T20:04:03.517Z,62.88
2023-08-15T20:07:05.458Z,62.59
2023-08-15T20:10:12.504Z,64.47
2023-08-15T20:13:14.846Z,65.10
2023-08-15T20:16:16.948Z,65.46
2023-08-15T20:19:20.124Z,64.82
2023-08-15T20:22:22.469Z,65.87
2023-08-15T20:25:25.832Z,66.61
2023-08-15T20:28:35.469Z,66.72
2023-08-15T20:31:37.613Z,66.70
2023-08-15T20:34:40.272Z,66.88
2023-08-15T20:37:42.167Z,66.27
2023-08-15T20:40:46.046Z,66.97
2023-08-15T20:43:48.996Z,67.36
2023-08-15T20:46:51.010Z,66.79
2023-08-15T20:49:53.117Z,67.51
2023-08-15T20:52:57.437Z,67.38
2023-08-15T20:55:59.355Z,67.59
2023-08-15T20:59:02.163Z,68.64
2023-08-15T21:02:04.762Z,68.92
2023-08-15T21:05:07.388Z,68.95
2023-08-15T21:08:09.234Z,69.84
2023-08-15T21:11:11.222Z,69.85
2023-08-15T21:14:13.089Z,70.34
2023-08-15T21:17:15.055Z,71.44
2023-08-15T21:20:16.905Z,71.45
2023-08-15T21:23:18.847Z,71.11
2023-08-15T21:26:24.220Z,71.50
2023-08-15T21:29:26.158Z,72.36
2023-08-15T21:32:28.308Z,72.70
2023-08-15T21:35:30.157Z,72.83
2023-08-15T21:38:32.380Z,73.48
2023-08-15T21:41:34.265Z,73.89
2023-08-15T21:44:36.073Z,74.45
2023-08-15T21:47:38.018Z,74.87
2023-08-15T21:50:41.071Z,75.14
2023-08-15T21:53:43.010Z,76.92
2023-08-15T21:56:44.888Z,76.97
2023-08-15T21:59:46.918Z,76.94
2023-08-15T22:02:49.342Z,77.00
2023-08-15T22:05:51.287Z,76.51
2023-08-15T22:08:53.266Z,76.31
2023-08-15T22:11:55.162Z,76.53
2023-08-15T22:14:57.107Z,75.74
2023-08-15T22:18:13.395Z,75.45
2023-08-15T22:21:20.924Z,75.90
2023-08-15T22:24:22.804Z,76.18
2023-08-15T22:27:24.764Z,75.84
2023-08-15T22:30:26.871Z,75.69
2023-08-15T22:33:28.803Z,75.84
2023-08-15T22:36:30.870Z,75.40
2023-08-15T22:39:32.723Z,75.92
2023-08-15T22:42:34.588Z,76.66
2023-08-15T22:45:36.952Z,76.64
2023-08-15T22:48:39.915Z,76.28
2023-08-15T22:51:41.951Z,76.57
2023-08-15T22:54:43.898Z,76.63
2023-08-15T22:57:45.804Z,76.61
2023-08-15T23:00:51.919Z,76.26
2023-08-15T23:03:53.852Z,76.32
2023-08-15T23:06:55.798Z,76.76
2023-08-15T23:09:57.834Z,76.85
2023-08-15T23:12:59.775Z,77.43
2023-08-15T23:16:01.707Z,77.48
2023-08-15T23:19:03.721Z,78.11
2023-08-15T23:22:05.696Z,78.14
2023-08-15T23:25:08.115Z,78.69
2023-08-15T23:28:10.143Z,78.65
2023-08-15T23:31:12.286Z,78.68
2023-08-15T23:34:14.546Z,78.10
2023-08-15T23:37:16.808Z,78.12
2023-08-15T23:40:19.133Z,78.30
2023-08-15T23:43:21.109Z,78.33
2023-08-15T23:46:27.138Z,78.18
2023-08-15T23:49:29.127Z,79.21
2023-08-15T23:52:30.989Z,80.71
2023-08-15T23:59:16.371Z,82.84
